createdAt,value
2023-06-19T00:00:14.051Z,6.10
2023-06-19T00:02:38.736Z,5.50
2023-06-19T00:05:02.052Z,5.80
2023-06-19T00:07:25.317Z,6.05
2023-06-19T00:09:48.516Z,5.57
2023-06-19T00:12:12.509Z,5.53
2023-06-19T00:14:37.046Z,6.43
2023-06-19T00:17:02.351Z,6.10
2023-06-19T00:19:25.686Z,5.45
2023-06-19T00:21:48.845Z,6.18
2023-06-19T00:24:12.544Z,5.80
2023-06-19T00:26:35.788Z,5.45
2023-06-19T00:28:59.452Z,6.25
2023-06-19T00:31:22.725Z,6.07
2023-06-19T00:33:48.407Z,6.00
2023-06-19T00:36:12.710Z,5.68
2023-06-19T00:38:36.145Z,5.65
2023-06-19T00:40:59.678Z,5.50
2023-06-19T00:43:23.088Z,5.70
2023-06-19T00:45:46.342Z,5.78
2023-06-19T00:48:11.161Z,5.45
2023-06-19T00:50:35.884Z,5.95
2023-06-19T00:52:59.782Z,5.85
2023-06-19T00:55:24.307Z,5.88
2023-06-19T00:57:48.235Z,6.00
2023-06-19T01:00:13.626Z,6.15
2023-06-19T01:02:37.523Z,6.45
2023-06-19T01:05:00.799Z,5.43
2023-06-19T01:07:35.370Z,6.10
2023-06-19T01:10:05.488Z,5.78
2023-06-19T01:12:35.674Z,5.95
2023-06-19T01:15:02.988Z,6.18
2023-06-19T01:17:27.956Z,5.72
2023-06-19T01:19:51.608Z,5.75
2023-06-19T01:22:27.782Z,5.45
2023-06-19T01:24:50.990Z,6.22
2023-06-19T01:27:14.361Z,5.93
2023-06-19T01:29:37.692Z,6.40
2023-06-19T01:32:07.264Z,5.82
2023-06-19T01:34:32.806Z,5.85
2023-06-19T01:36:58.094Z,5.95
2023-06-19T01:39:23.322Z,5.65
2023-06-19T01:41:48.220Z,5.53
2023-06-19T01:44:11.974Z,5.97
2023-06-19T01:46:35.280Z,6.93
2023-06-19T01:49:00.830Z,5.85
2023-06-19T01:51:24.125Z,6.40
2023-06-19T01:53:47.291Z,5.75
2023-06-19T01:56:12.061Z,5.95
2023-06-19T01:58:35.348Z,5.63
2023-06-19T02:00:58.718Z,5.45
2023-06-19T02:03:22.135Z,5.70
2023-06-19T02:05:45.571Z,5.75
2023-06-19T02:08:08.920Z,5.65
2023-06-19T02:10:33.840Z,5.43
2023-06-19T02:12:58.770Z,5.97
2023-06-19T02:15:22.012Z,5.50
2023-06-19T02:17:45.276Z,5.93
2023-06-19T02:20:12.406Z,5.40
2023-06-19T02:22:35.579Z,6.35
2023-06-19T02:24:58.787Z,5.68
2023-06-19T02:27:22.022Z,5.90
2023-06-19T02:29:46.553Z,5.82
2023-06-19T02:32:10.261Z,6.30
2023-06-19T02:34:34.660Z,5.70
2023-06-19T02:36:58.050Z,6.90
2023-06-19T02:39:21.271Z,6.43
2023-06-19T02:41:47.107Z,6.38
2023-06-19T02:44:10.302Z,5.90
2023-06-19T02:46:34.940Z,5.75
2023-06-19T02:48:58.535Z,5.10
2023-06-19T02:51:21.903Z,4.90
2023-06-19T02:53:45.145Z,4.53
2023-06-19T02:56:08.717Z,4.82
2023-06-19T02:58:31.974Z,4.03
2023-06-19T03:00:55.640Z,4.30
2023-06-19T03:03:20.367Z,4.65
2023-06-19T03:05:43.715Z,3.92
2023-06-19T03:08:08.108Z,4.10
2023-06-19T03:10:31.735Z,3.80
2023-06-19T03:12:54.987Z,3.80
2023-06-19T03:15:18.688Z,3.88
2023-06-19T03:17:45.837Z,3.65
2023-06-19T03:20:13.350Z,3.67
2023-06-19T03:22:42.849Z,4.00
2023-06-19T03:25:10.211Z,4.13
2023-06-19T03:27:33.424Z,4.03
2023-06-19T03:29:56.701Z,4.28
2023-06-19T03:32:32.425Z,4.15
2023-06-19T03:34:56.488Z,4.07
2023-06-19T03:37:21.926Z,3.72
2023-06-19T03:39:46.028Z,4.13
2023-06-19T03:42:10.706Z,4.13
2023-06-19T03:44:34.122Z,3.95
2023-06-19T03:46:57.831Z,3.97
2023-06-19T03:49:21.110Z,3.65
2023-06-19T03:51:47.295Z,3.38
2023-06-19T03:54:11.976Z,3.90
2023-06-19T03:56:36.062Z,3.95
2023-06-19T03:58:59.255Z,4.10
2023-06-19T04:01:22.548Z,3.78
2023-06-19T04:03:46.092Z,4.10
2023-06-19T04:06:09.714Z,3.70
2023-06-19T04:08:36.343Z,4.28
2023-06-19T04:11:00.993Z,3.85
2023-06-19T04:13:27.101Z,4.38
2023-06-19T04:15:51.491Z,3.80
2023-06-19T04:18:15.163Z,4.00
2023-06-19T04:20:38.396Z,4.15
2023-06-19T04:23:01.667Z,4.20
2023-06-19T04:25:25.470Z,3.92
2023-06-19T04:27:50.402Z,3.63
2023-06-19T04:30:14.167Z,4.20
2023-06-19T04:32:37.700Z,4.00
2023-06-19T04:35:01.101Z,4.32
2023-06-19T04:37:24.263Z,4.10
2023-06-19T04:39:47.513Z,4.22
2023-06-19T04:42:10.820Z,4.13
2023-06-19T04:44:35.619Z,4.40
2023-06-19T04:47:02.135Z,3.65
2023-06-19T04:49:25.378Z,3.90
2023-06-19T04:51:49.356Z,4.45
2023-06-19T04:54:12.642Z,4.22
2023-06-19T04:56:35.868Z,5.07
2023-06-19T04:59:00.681Z,4.10
2023-06-19T05:01:28.918Z,3.97
2023-06-19T05:03:52.127Z,4.20
2023-06-19T05:06:15.317Z,3.97
2023-06-19T05:08:38.607Z,3.70
2023-06-19T05:11:01.991Z,4.03
2023-06-19T05:13:25.193Z,3.60
2023-06-19T05:15:49.595Z,3.35
2023-06-19T05:18:14.569Z,3.38
2023-06-19T05:20:37.901Z,3.60
2023-06-19T05:23:01.086Z,3.10
2023-06-19T05:25:24.356Z,3.30
2023-06-19T05:27:47.533Z,3.53
2023-06-19T05:30:12.529Z,3.50
2023-06-19T05:32:36.135Z,3.65
2023-06-19T05:35:00.967Z,3.20
2023-06-19T05:37:24.449Z,3.75
2023-06-19T05:39:47.850Z,3.28
2023-06-19T05:42:11.134Z,3.38
2023-06-19T05:44:34.360Z,3.25
2023-06-19T05:46:57.583Z,3.30
2023-06-19T05:49:20.840Z,3.28
2023-06-19T05:51:45.500Z,3.30
2023-06-19T05:54:08.774Z,3.03
2023-06-19T05:56:32.003Z,3.20
2023-06-19T05:58:55.432Z,3.25
2023-06-19T06:01:19.021Z,3.05
2023-06-19T06:03:42.292Z,3.05
2023-06-19T06:06:06.061Z,3.10
2023-06-19T06:08:30.843Z,3.13
2023-06-19T06:10:53.995Z,2.95
2023-06-19T06:13:17.191Z,2.92
2023-06-19T06:15:40.388Z,3.10
2023-06-19T06:18:04.925Z,3.20
2023-06-19T06:20:28.713Z,2.80
2023-06-19T06:22:52.060Z,2.90
2023-06-19T06:25:16.733Z,3.03
2023-06-19T06:27:39.962Z,3.08
2023-06-19T06:30:03.286Z,3.25
2023-06-19T06:32:27.348Z,3.35
2023-06-19T06:34:50.487Z,3.58
2023-06-19T06:37:13.832Z,3.40
2023-06-19T06:39:37.126Z,3.17
2023-06-19T06:42:01.840Z,3.45
2023-06-19T06:44:25.072Z,3.15
2023-06-19T06:46:48.468Z,2.67
2023-06-19T06:49:12.039Z,3.55
2023-06-19T06:51:35.328Z,3.30
2023-06-19T06:53:58.872Z,3.28
2023-06-19T06:56:22.431Z,3.75
2023-06-19T06:58:47.963Z,3.28
2023-06-19T07:01:11.490Z,3.50
2023-06-19T07:03:36.231Z,3.60
2023-06-19T07:05:59.670Z,3.50
2023-06-19T07:08:22.828Z,3.67
2023-06-19T07:10:46.093Z,3.53
2023-06-19T07:13:09.377Z,3.60
2023-06-19T07:15:33.987Z,3.38
2023-06-19T07:17:58.078Z,3.30
2023-06-19T07:20:21.934Z,3.50
2023-06-19T07:22:46.091Z,3.28
2023-06-19T07:25:12.133Z,3.60
2023-06-19T07:27:35.399Z,3.88
2023-06-19T07:29:58.858Z,4.00
2023-06-19T07:32:23.567Z,3.30
2023-06-19T07:34:46.790Z,3.80
2023-06-19T07:37:10.206Z,3.50
2023-06-19T07:39:33.415Z,3.38
2023-06-19T07:41:56.612Z,3.10
2023-06-19T07:44:22.014Z,2.80
2023-06-19T07:46:45.302Z,3.10
2023-06-19T07:49:09.943Z,2.75
2023-06-19T07:51:33.217Z,3.25
2023-06-19T07:53:56.471Z,3.80
2023-06-19T07:56:19.642Z,4.07
2023-06-19T07:58:42.925Z,3.47
2023-06-19T08:01:06.201Z,3.30
2023-06-19T08:03:29.555Z,3.70
2023-06-19T08:05:54.275Z,4.22
2023-06-19T08:08:17.924Z,3.45
2023-06-19T08:10:42.066Z,4.40
2023-06-19T08:13:05.345Z,3.97
2023-06-19T08:15:28.560Z,3.58
2023-06-19T08:17:52.153Z,4.13
2023-06-19T08:20:15.538Z,3.72
2023-06-19T08:22:40.155Z,3.63
2023-06-19T08:25:03.506Z,3.55
2023-06-19T08:27:26.735Z,3.88
2023-06-19T08:29:50.274Z,3.58
2023-06-19T08:32:13.466Z,3.70
2023-06-19T08:34:36.671Z,3.60
2023-06-19T08:36:59.891Z,3.88
2023-06-19T08:39:25.377Z,3.95
2023-06-19T08:41:49.376Z,3.30
2023-06-19T08:44:12.569Z,3.15
2023-06-19T08:46:38.100Z,3.60
2023-06-19T08:49:01.604Z,3.15
2023-06-19T08:51:27.629Z,3.28
2023-06-19T08:53:57.340Z,3.13
2023-06-19T08:56:22.059Z,3.38
2023-06-19T08:58:45.255Z,3.40
2023-06-19T09:01:08.464Z,3.95
2023-06-19T09:03:31.830Z,3.55
2023-06-19T09:05:55.214Z,3.55
2023-06-19T09:08:19.925Z,3.17
2023-06-19T09:10:44.125Z,3.50
2023-06-19T09:13:09.724Z,3.25
2023-06-19T09:15:36.845Z,3.30
2023-06-19T09:18:10.406Z,3.40
2023-06-19T09:20:35.358Z,3.28
2023-06-19T09:22:59.139Z,3.70
2023-06-19T09:25:22.846Z,3.90
2023-06-19T09:27:46.010Z,3.78
2023-06-19T09:30:18.475Z,3.20
2023-06-19T09:32:43.300Z,3.63
2023-06-19T09:35:07.307Z,3.88
2023-06-19T09:37:32.199Z,4.20
2023-06-19T09:39:58.808Z,3.85
2023-06-19T09:42:30.857Z,3.88
2023-06-19T09:44:57.889Z,3.80
2023-06-19T09:47:25.664Z,3.30
2023-06-19T09:49:53.299Z,4.10
2023-06-19T09:52:17.511Z,4.07
2023-06-19T09:54:44.699Z,4.00
2023-06-19T09:57:09.070Z,3.67
2023-06-19T09:59:33.004Z,3.85
2023-06-19T10:01:56.257Z,3.85
2023-06-19T10:04:21.243Z,4.53
2023-06-19T10:06:48.437Z,4.18
2023-06-19T10:09:12.326Z,4.40
2023-06-19T10:11:48.411Z,3.90
2023-06-19T10:14:11.609Z,4.03
2023-06-19T10:16:34.802Z,4.55
2023-06-19T10:18:59.816Z,4.15
2023-06-19T10:21:24.578Z,4.30
2023-06-19T10:23:56.809Z,5.10
2023-06-19T10:26:22.276Z,4.60
2023-06-19T10:28:50.115Z,4.90
2023-06-19T10:31:13.416Z,4.80
2023-06-19T10:33:41.274Z,4.85
2023-06-19T10:36:16.621Z,4.97
2023-06-19T10:38:41.449Z,5.13
2023-06-19T10:41:04.645Z,4.53
2023-06-19T10:43:32.913Z,4.57
2023-06-19T10:45:56.435Z,4.60
2023-06-19T10:48:22.512Z,5.38
2023-06-19T10:50:45.730Z,4.55
2023-06-19T10:53:09.442Z,5.25
2023-06-19T10:55:36.276Z,5.30
2023-06-19T10:57:59.845Z,4.97
2023-06-19T11:00:28.767Z,4.65
2023-06-19T11:02:52.324Z,5.30
2023-06-19T11:05:16.914Z,5.18
2023-06-19T11:07:40.444Z,4.53
2023-06-19T11:10:04.683Z,4.63
2023-06-19T11:12:29.302Z,5.05
2023-06-19T11:14:52.807Z,5.28
2023-06-19T11:17:16.275Z,5.47
2023-06-19T11:19:43.069Z,5.00
2023-06-19T11:22:08.863Z,4.95
2023-06-19T11:24:32.347Z,5.30
2023-06-19T11:26:56.057Z,4.97
2023-06-19T11:29:24.064Z,5.20
2023-06-19T11:31:48.180Z,5.13
2023-06-19T11:34:11.528Z,5.35
2023-06-19T11:36:34.820Z,5.80
2023-06-19T11:38:59.004Z,4.80
2023-06-19T11:41:29.804Z,4.72
2023-06-19T11:44:01.505Z,4.80
2023-06-19T11:46:31.809Z,5.32
2023-06-19T11:49:07.035Z,5.45
2023-06-19T11:51:31.251Z,5.25
2023-06-19T11:53:55.390Z,5.38
2023-06-19T11:56:18.627Z,5.07
2023-06-19T11:58:41.924Z,5.63
2023-06-19T12:01:05.156Z,5.13
2023-06-19T12:03:29.928Z,5.32
2023-06-19T12:05:53.281Z,5.50
2023-06-19T12:08:16.923Z,5.63
2023-06-19T12:10:40.181Z,5.45
2023-06-19T12:13:03.655Z,5.05
2023-06-19T12:15:27.431Z,4.80
2023-06-19T12:17:50.870Z,5.22
2023-06-19T12:20:15.743Z,5.05
2023-06-19T12:22:38.987Z,5.07
2023-06-19T12:25:02.441Z,5.15
2023-06-19T12:27:25.605Z,5.35
2023-06-19T12:29:48.873Z,7.40
2023-06-19T12:32:12.071Z,6.40
2023-06-19T12:34:35.257Z,5.30
2023-06-19T12:37:00.206Z,9.48
2023-06-19T12:39:23.571Z,6.57
2023-06-19T12:41:47.634Z,5.40
2023-06-19T12:44:12.328Z,5.18
2023-06-19T12:46:35.767Z,4.90
2023-06-19T12:48:59.108Z,5.35
2023-06-19T12:51:22.269Z,5.10
2023-06-19T12:53:46.875Z,5.10
2023-06-19T12:56:14.150Z,5.55
2023-06-19T12:58:37.640Z,5.15
2023-06-19T13:01:00.899Z,5.22
2023-06-19T13:03:24.406Z,5.05
2023-06-19T13:05:48.623Z,5.13
2023-06-19T13:08:11.835Z,5.20
2023-06-19T13:10:36.430Z,5.03
2023-06-19T13:12:59.667Z,4.85
2023-06-19T13:15:22.984Z,4.75
2023-06-19T13:17:46.625Z,4.95
2023-06-19T13:20:10.873Z,4.90
2023-06-19T13:22:59.000Z,5.38
2023-06-19T13:25:22.533Z,4.72
2023-06-19T13:27:47.234Z,5.32
2023-06-19T13:30:11.959Z,5.28
2023-06-19T13:32:35.323Z,4.50
2023-06-19T13:34:58.527Z,4.88
2023-06-19T13:37:22.103Z,4.57
2023-06-19T13:39:45.590Z,4.32
2023-06-19T13:42:09.508Z,4.53
2023-06-19T13:44:34.146Z,4.85
2023-06-19T13:46:57.403Z,5.18
2023-06-19T13:49:20.636Z,4.50
2023-06-19T13:51:45.242Z,4.82
2023-06-19T13:54:08.895Z,5.07
2023-06-19T13:56:32.184Z,5.22
2023-06-19T13:58:55.448Z,4.75
2023-06-19T14:01:20.072Z,4.97
2023-06-19T14:03:43.773Z,4.68
2023-06-19T14:06:07.342Z,5.15
2023-06-19T14:08:30.859Z,4.07
2023-06-19T14:10:54.213Z,4.97
2023-06-19T14:13:17.582Z,4.68
2023-06-19T14:15:41.134Z,4.30
2023-06-19T14:18:05.903Z,4.65
2023-06-19T14:20:29.094Z,4.57
2023-06-19T14:22:52.451Z,4.88
2023-06-19T14:25:15.782Z,4.43
2023-06-19T14:27:38.976Z,4.47
2023-06-19T14:30:02.220Z,4.85
2023-06-19T14:32:25.968Z,4.28
2023-06-19T14:34:50.657Z,4.80
2023-06-19T14:37:13.909Z,4.80
2023-06-19T14:39:37.051Z,4.93
2023-06-19T14:42:00.196Z,4.38
2023-06-19T14:44:23.355Z,4.57
2023-06-19T14:46:46.603Z,4.65
2023-06-19T14:49:13.877Z,4.28
2023-06-19T14:51:38.700Z,3.95
2023-06-19T14:54:02.254Z,4.60
2023-06-19T14:56:25.620Z,4.38
2023-06-19T14:58:48.838Z,4.90
2023-06-19T15:01:12.553Z,4.50
2023-06-19T15:03:35.893Z,4.60
2023-06-19T15:05:59.301Z,4.43
2023-06-19T15:08:25.075Z,4.43
2023-06-19T15:10:48.462Z,4.28
2023-06-19T15:13:11.620Z,4.20
2023-06-19T15:15:34.882Z,4.28
2023-06-19T15:17:58.704Z,4.10
2023-06-19T15:20:22.353Z,4.10
2023-06-19T15:22:45.811Z,4.10
2023-06-19T15:25:11.204Z,3.95
2023-06-19T15:27:34.699Z,4.38
2023-06-19T15:29:58.266Z,3.78
2023-06-19T15:32:21.543Z,4.28
2023-06-19T15:34:44.708Z,3.40
2023-06-19T15:37:08.019Z,3.63
2023-06-19T15:39:31.251Z,3.13
2023-06-19T15:41:55.888Z,4.22
2023-06-19T15:44:19.081Z,3.38
2023-06-19T15:46:42.503Z,3.75
2023-06-19T15:49:05.729Z,3.90
2023-06-19T15:51:28.921Z,4.28
2023-06-19T15:53:52.089Z,3.97
2023-06-19T15:56:15.277Z,4.20
2023-06-19T15:58:40.415Z,4.63
2023-06-19T16:01:04.053Z,4.13
2023-06-19T16:03:29.581Z,4.35
2023-06-19T16:08:19.838Z,4.22
2023-06-19T16:10:43.167Z,3.67
2023-06-19T16:13:06.388Z,4.55
2023-06-19T16:15:32.709Z,3.83
2023-06-19T16:17:56.355Z,4.25
2023-06-19T16:20:19.613Z,3.92
2023-06-19T16:22:42.751Z,3.95
2023-06-19T16:25:09.995Z,4.45
2023-06-19T16:27:34.582Z,3.80
2023-06-19T16:29:57.826Z,3.70
2023-06-19T16:32:22.560Z,3.53
2023-06-19T16:34:45.876Z,3.90
2023-06-19T16:37:09.106Z,3.90
2023-06-19T16:39:32.390Z,4.03
2023-06-19T16:41:55.664Z,4.32
2023-06-19T16:44:19.428Z,4.72
2023-06-19T16:46:42.641Z,4.43
2023-06-19T16:49:07.473Z,4.55
2023-06-19T16:51:30.708Z,4.28
2023-06-19T16:53:54.120Z,4.35
2023-06-19T16:56:17.293Z,4.70
2023-06-19T16:58:40.444Z,4.50
2023-06-19T17:01:03.816Z,4.72
2023-06-19T17:03:27.091Z,4.57
2023-06-19T17:05:51.736Z,4.72
2023-06-19T17:08:15.157Z,4.40
2023-06-19T17:10:38.340Z,4.18
2023-06-19T17:13:01.517Z,4.18
2023-06-19T17:15:24.858Z,4.57
2023-06-19T17:17:48.086Z,4.20
2023-06-19T17:20:13.361Z,4.22
2023-06-19T17:22:37.980Z,4.40
2023-06-19T17:25:01.143Z,4.30
2023-06-19T17:27:24.335Z,4.28
2023-06-19T17:29:47.578Z,4.70
2023-06-19T17:32:10.693Z,4.72
2023-06-19T17:34:34.515Z,4.43
2023-06-19T17:36:57.717Z,4.15
2023-06-19T17:39:22.375Z,4.43
2023-06-19T17:41:45.558Z,4.50
2023-06-19T17:44:08.927Z,4.95
2023-06-19T17:46:32.426Z,4.82
2023-06-19T17:48:55.752Z,4.97
2023-06-19T17:51:19.473Z,4.30
2023-06-19T17:53:42.721Z,4.43
2023-06-19T17:56:07.346Z,4.65
2023-06-19T17:58:30.601Z,5.22
2023-06-19T18:00:53.845Z,4.80
2023-06-19T18:03:17.238Z,4.82
2023-06-19T18:05:40.474Z,4.03
2023-06-19T18:08:03.722Z,4.55
2023-06-19T18:10:27.030Z,4.47
2023-06-19T18:12:51.979Z,4.50
2023-06-19T18:15:15.153Z,4.50
2023-06-19T18:17:38.361Z,5.15
2023-06-19T18:20:01.706Z,4.72
2023-06-19T18:22:24.946Z,5.47
2023-06-19T18:24:48.314Z,5.03
2023-06-19T18:27:11.575Z,4.30
2023-06-19T18:29:36.398Z,5.90
2023-06-19T18:31:59.805Z,4.50
2023-06-19T18:34:23.111Z,4.53
2023-06-19T18:36:46.384Z,4.88
2023-06-19T18:39:09.618Z,4.72
2023-06-19T18:41:33.372Z,4.78
2023-06-19T18:43:56.573Z,5.07
2023-06-19T18:46:21.147Z,4.68
2023-06-19T18:48:45.543Z,4.65
2023-06-19T18:51:08.689Z,4.90
2023-06-19T18:53:32.044Z,4.75
2023-06-19T18:55:55.574Z,5.07
2023-06-19T18:58:19.871Z,5.43
2023-06-19T19:00:43.080Z,5.28
2023-06-19T19:03:08.478Z,5.50
2023-06-19T19:05:33.726Z,5.20
2023-06-19T19:07:57.762Z,4.43
2023-06-19T19:10:20.906Z,5.15
2023-06-19T19:12:44.288Z,4.97
2023-06-19T19:15:09.037Z,5.10
2023-06-19T19:17:32.471Z,4.85
2023-06-19T19:19:57.015Z,4.82
2023-06-19T19:22:20.191Z,5.05
2023-06-19T19:24:43.567Z,4.60
2023-06-19T19:27:08.146Z,4.95
2023-06-19T19:29:31.302Z,4.93
2023-06-19T19:31:54.585Z,5.05
2023-06-19T19:34:21.696Z,4.93
2023-06-19T19:36:47.849Z,5.25
2023-06-19T19:39:10.987Z,4.55
2023-06-19T19:41:34.178Z,5.10
2023-06-19T19:43:57.303Z,5.63
2023-06-19T19:46:20.640Z,5.88
2023-06-19T19:48:44.120Z,4.97
2023-06-19T19:51:07.485Z,5.30
2023-06-19T19:53:31.987Z,4.82
2023-06-19T19:55:55.267Z,5.38
2023-06-19T19:58:18.693Z,5.53
2023-06-19T20:00:45.328Z,5.82
2023-06-19T20:03:08.727Z,5.60
2023-06-19T20:05:32.106Z,5.53
2023-06-19T20:07:55.285Z,4.90
2023-06-19T20:10:19.905Z,5.38
2023-06-19T20:12:43.455Z,5.60
2023-06-19T20:15:08.771Z,4.85
2023-06-19T20:17:32.085Z,5.30
2023-06-19T20:19:55.272Z,5.88
2023-06-19T20:22:18.653Z,5.50
2023-06-19T20:24:41.854Z,5.35
2023-06-19T20:27:07.727Z,5.40
2023-06-19T20:29:30.987Z,5.70
2023-06-19T20:31:54.164Z,5.68
2023-06-19T20:34:17.361Z,5.03
2023-06-19T20:36:40.603Z,5.60
2023-06-19T20:39:06.329Z,5.63
2023-06-19T20:41:29.483Z,5.35
2023-06-19T20:43:54.166Z,5.40
2023-06-19T20:46:17.548Z,5.75
2023-06-19T20:48:40.754Z,6.00
2023-06-19T20:51:03.935Z,5.82
2023-06-19T20:53:27.706Z,5.75
2023-06-19T20:55:50.925Z,6.20
2023-06-19T20:58:14.260Z,5.45
2023-06-19T21:00:38.774Z,6.30
2023-06-19T21:03:04.129Z,5.63
2023-06-19T21:05:27.515Z,6.10
2023-06-19T21:07:52.590Z,6.28
2023-06-19T21:10:15.770Z,5.75
2023-06-19T21:12:38.962Z,6.68
2023-06-19T21:15:02.219Z,5.85
2023-06-19T21:17:26.781Z,6.05
2023-06-19T21:19:49.996Z,5.97
2023-06-19T21:22:13.330Z,6.60
2023-06-19T21:24:38.502Z,6.00
2023-06-19T21:27:02.450Z,6.22
2023-06-19T21:29:25.650Z,6.15
2023-06-19T21:31:48.865Z,6.60
2023-06-19T21:34:13.625Z,7.07
2023-06-19T21:36:37.256Z,6.80
2023-06-19T21:39:00.481Z,6.68
2023-06-19T21:41:23.672Z,6.32
2023-06-19T21:43:48.326Z,6.60
2023-06-19T21:46:11.552Z,6.90
2023-06-19T21:48:35.156Z,7.07
2023-06-19T21:50:59.686Z,6.30
2023-06-19T21:53:23.068Z,6.85
2023-06-19T21:55:46.304Z,7.65
2023-06-19T21:58:09.991Z,7.38
2023-06-19T22:00:33.250Z,6.93
2023-06-19T22:02:56.567Z,8.02
2023-06-19T22:05:19.922Z,7.30
2023-06-19T22:07:44.571Z,7.88
2023-06-19T22:10:09.962Z,7.93
2023-06-19T22:12:33.381Z,8.63
2023-06-19T22:14:56.552Z,7.40
2023-06-19T22:17:20.895Z,8.07
2023-06-19T22:19:44.345Z,7.63
2023-06-19T22:22:08.256Z,8.40
2023-06-19T22:24:35.333Z,8.40
2023-06-19T22:26:58.642Z,8.07
2023-06-19T22:29:21.864Z,7.75
2023-06-19T22:31:45.099Z,8.35
2023-06-19T22:34:08.321Z,9.32
2023-06-19T22:36:31.532Z,8.02
2023-06-19T22:38:54.780Z,8.27
2023-06-19T22:41:19.322Z,7.82
2023-06-19T22:43:42.597Z,8.77
2023-06-19T22:46:05.818Z,8.02
2023-06-19T22:48:29.287Z,7.88
2023-06-19T22:50:53.596Z,7.55
2023-06-19T22:53:16.899Z,8.00
2023-06-19T22:55:40.864Z,8.07
2023-06-19T22:58:05.421Z,7.80
2023-06-19T23:00:28.767Z,8.95
2023-06-19T23:02:52.612Z,7.82
2023-06-19T23:05:16.068Z,7.68
2023-06-19T23:07:40.308Z,7.95
2023-06-19T23:10:04.805Z,7.75
2023-06-19T23:12:28.277Z,7.45
2023-06-19T23:14:52.934Z,8.05
2023-06-19T23:17:16.195Z,8.50
2023-06-19T23:19:41.978Z,7.60
2023-06-19T23:22:05.624Z,7.95
2023-06-19T23:24:29.325Z,8.70
2023-06-19T23:26:52.600Z,7.32
2023-06-19T23:29:15.821Z,8.30
2023-06-19T23:31:41.959Z,8.55
2023-06-19T23:34:05.657Z,8.55
2023-06-19T23:36:30.013Z,7.97
2023-06-19T23:38:53.216Z,8.38
2023-06-19T23:41:16.522Z,7.40
2023-06-19T23:43:39.840Z,7.72
2023-06-19T23:46:03.980Z,7.30
2023-06-19T23:48:28.580Z,8.20
2023-06-19T23:50:51.768Z,8.45
2023-06-19T23:53:15.050Z,7.93
2023-06-19T23:55:38.255Z,8.35
2023-06-19T23:58:01.778Z,7.70
